KBLH/BLH METAR and TAF weather

Enter ICAO airport designator
Station Type Date Time Source
KBLH METAR 2019/12/11 16:52 UTC NOAA

KBLH 111652Z AUTO 00000KT 10SM CLR 12/05 A3023 RMK AO2 SLP234 T01170050


Station Type Date Time Source
KBLH Decoded METAR 2019/12/11 16:52 UTC NOAA

BLYTHE AIRPORT, CA, United States (KBLH) 33-37N 114-43W 119M
Dec 11, 2019 - 11:52 AM EST / 2019.12.11 1652 UTC
Wind: Calm:0
Visibility: 10 mile(s):0
Sky conditions: clear
Temperature: 53.1 F (11.7 C)
Dew Point: 41.0 F (5.0 C)
Relative Humidity: 63%
Pressure (altimeter): 30.23 in. Hg (1023 hPa)
ob: KBLH 111652Z AUTO 00000KT 10SM CLR 12/05 A3023 RMK AO2 SLP234 T01170050
cycle: 17

Station Type Date Time Source
KBLH TAF 2019/12/11 18:22 UTC NOAA

TAF KBLH 111720Z 1118/1218 33004KT P6SM SCT250

Example: see airport list